Columbus Air Force Base
KCBM : rendu visible

Aérodrome :











RETROUVEZ-NOUS SUR...

 
LOGIN :

S'inscrire | Disclaimer

   EN    FR    IT 

 









Légende :    VFR   VFR Marginal   IFR   IFR Intensif   IFR Très Intensif
Visi : 
Plafond : 
>= 8 km
>= 3000ft
5 à 8 km
1000 à 3000 ft
1500m à 5 km
500 à 1000 ft
800 à 1500m
200 à 500 ft
< 800m
< 200 ft
Symboles :   Orages  Brouillard  Fortes neiges  Fortes précipitations  Vent > 20 kt






- Altitude de l'aérodrome : 219 ft


KCBM - Columbus Air Force Base

DERNIER METAR :
  • 121811Z AUTO 36018G23KT 10SM CLR 01/M10 A3041 RMK AO2 WSHFT 08 SLP303 $

METARs EXPIRÉS :
  • 121757Z AUTO 35011G20KT 10SM CLR 00/M08 A3042 RMK AO2 WSHFT 43 SLP306 $
  • 121756Z AUTO 35015G20KT 10SM FEW030 00/M09 A3042 RMK AO2 SLP306 T00011086 10003 21021 58003 $
  • 121731Z AUTO 32016G22KT 10SM SCT026 00/M08 A3043 RMK AO2 SLP309 $
  • 121716Z AUTO 32018G21KT 10SM BKN025 00/M07 A3043 RMK AO2 SLP309 $
  • 121656Z AUTO 32012G21KT 10SM BKN021 BKN027 M01/M07 A3044 RMK AO2 BKN021 V OVC SLP313 T10091067 $
  • 121646Z AUTO 32014G19KT 10SM BKN021 OVC027 M02/M07 A3044 RMK AO2 SLP313 $
  • 121556Z AUTO 34012G20KT 10SM OVC020 M01/M06 A3044 RMK AO2 SLP313 T10151065 $
  • 121531Z AUTO 33013G24KT 10SM OVC020 M02/M07 A3044 RMK AO2 SLP313 $

TAF TAF KCBM
Valide du 12 à 17h jusqu'au 13 à 23h UTC


121700Z 1217/1323 35020G25KT 9999 SCT020 510053 QNH3038INS
BECMG 1219/1220 36020G25KT 9999 SKC 510053 QNH3037INS
BECMG 1222/1223 36009KT 9999 SKC QNH3017INS TX03/1222Z TNM05/1310Z/



MET'MAP, la Météo Aéronautique d'un coup d'oeil ! - Copyright ORBIFLY Décembre 2007 - Disclaimer

ORBIFLY MET'MAP TEAM :

Programmation & Développement : Alexandra Zaïnal
Conception & Développement : Baudouin d'Aumeries
Co-Programmation & Développement : Marc-Olivier Méhu
Soutien technique & logistique : Manuel Goepfert

Contact : metmap@orbifly.com




SOURCES & CREDITS :

   NOAA       Earth
Advisory